Time;durP1;ratioP1;P1;durP2;ratioP2;P2;SDS_P1;SDS_P2;PMS_P1;PMS_P2;Temp;Humidity;BMP_temperature;BMP_pressure;BME280_temperature;BME280_humidity;BME280_pressure;Samples;Min_cycle;Max_cycle;Signal;HPM_P1;HPM_P2
2024/02/29 00:01:57;;;;;;;519.27;484.43;;;2.80;99.90;;;;;;5000884;28;20487;-66
2024/02/29 00:04:24;;;;;;;517.40;482.40;;;2.70;99.90;;;;;;5014295;28;20480;-66
2024/02/29 00:06:52;;;;;;;522.37;486.13;;;2.60;99.90;;;;;;5014666;28;20833;-66
2024/02/29 00:09:19;;;;;;;524.60;488.17;;;2.50;99.90;;;;;;4997744;28;20452;-66
2024/02/29 00:11:46;;;;;;;527.93;491.60;;;2.50;99.90;;;;;;5007815;28;20449;-66
2024/02/29 00:14:12;;;;;;;537.17;499.07;;;2.50;99.90;;;;;;5014362;28;20485;-66
2024/02/29 00:16:43;;;;;;;534.30;497.03;;;2.50;99.90;;;;;;5014218;28;20570;-66
2024/02/29 00:19:10;;;;;;;549.17;508.30;;;2.50;99.90;;;;;;5014367;28;20552;-66
2024/02/29 00:21:37;;;;;;;554.13;513.77;;;2.50;99.90;;;;;;5006549;28;20460;-66
2024/02/29 00:24:05;;;;;;;554.60;514.30;;;2.50;99.90;;;;;;5014203;28;20475;-67
2024/02/29 00:26:32;;;;;;;553.33;512.10;;;2.50;99.90;;;;;;4995303;28;20966;-66
2024/02/29 00:29:01;;;;;;;556.03;514.73;;;2.60;99.90;;;;;;5008078;28;20449;-66
2024/02/29 00:31:28;;;;;;;569.80;529.57;;;2.60;99.90;;;;;;5003872;28;20462;-66
2024/02/29 00:33:54;;;;;;;562.00;524.00;;;2.60;99.90;;;;;;4999689;28;21034;-66
2024/02/29 00:36:21;;;;;;;551.73;513.77;;;2.60;99.90;;;;;;5014243;28;20461;-66
2024/02/29 00:38:48;;;;;;;551.93;513.83;;;2.60;99.90;;;;;;5014405;28;20515;-66
2024/02/29 00:41:16;;;;;;;556.97;518.93;;;2.60;99.90;;;;;;5014510;28;20461;-66
2024/02/29 00:43:43;;;;;;;551.50;514.67;;;2.50;99.90;;;;;;5014579;28;20473;-66
2024/02/29 00:46:10;;;;;;;557.00;521.20;;;2.50;99.90;;;;;;5014373;28;20456;-66
2024/02/29 00:48:36;;;;;;;557.00;521.40;;;2.50;99.90;;;;;;5014259;28;20457;-66
2024/02/29 00:51:03;;;;;;;554.73;519.93;;;2.50;99.90;;;;;;5006122;28;20464;-66
2024/02/29 00:53:30;;;;;;;551.50;518.23;;;2.40;99.90;;;;;;5012804;28;20472;-66
2024/02/29 00:55:57;;;;;;;534.23;503.80;;;2.50;99.90;;;;;;5005919;28;20488;-66
2024/02/29 00:58:25;;;;;;;523.60;494.73;;;2.50;99.90;;;;;;5012207;28;20523;-66
2024/02/29 01:00:52;;;;;;;496.70;470.10;;;2.50;99.90;;;;;;4993972;28;20454;-66
2024/02/29 01:03:19;;;;;;;470.03;446.30;;;2.50;99.90;;;;;;4994941;28;20480;-66
2024/02/29 01:05:46;;;;;;;444.07;422.83;;;2.40;99.90;;;;;;5010753;28;20452;-65
2024/02/29 01:08:12;;;;;;;384.67;367.70;;;2.50;99.90;;;;;;4997380;28;20454;-65
2024/02/29 01:10:39;;;;;;;344.03;329.10;;;2.50;99.90;;;;;;5005884;28;21059;-66
2024/02/29 01:13:08;;;;;;;329.17;315.40;;;2.50;99.90;;;;;;5006154;28;20470;-66
2024/02/29 01:15:36;;;;;;;297.97;286.37;;;2.50;99.90;;;;;;5004396;28;20485;-67
2024/02/29 01:18:05;;;;;;;261.80;251.60;;;2.50;99.90;;;;;;5013699;28;20449;-66
2024/02/29 01:20:32;;;;;;;261.67;251.73;;;2.50;99.90;;;;;;5005255;28;20458;-66
2024/02/29 01:22:59;;;;;;;298.27;286.77;;;2.50;99.90;;;;;;5013290;28;20480;-67
2024/02/29 01:25:25;;;;;;;261.50;251.50;;;2.40;99.90;;;;;;5012943;28;20536;-66
2024/02/29 01:27:52;;;;;;;250.27;240.27;;;2.40;99.90;;;;;;5013133;28;20453;-66
2024/02/29 01:30:19;;;;;;;218.43;210.50;;;2.20;99.90;;;;;;4996213;28;20467;-66
2024/02/29 01:32:47;;;;;;;238.87;230.07;;;2.00;99.90;;;;;;4993531;28;20560;-66
2024/02/29 01:35:14;;;;;;;276.23;266.07;;;1.90;99.90;;;;;;5009572;28;20488;-66
2024/02/29 01:37:42;;;;;;;326.07;313.50;;;1.70;99.90;;;;;;5013067;28;20952;-66
2024/02/29 01:40:09;;;;;;;403.47;387.00;;;1.60;99.90;;;;;;5013096;28;20481;-66
2024/02/29 01:42:36;;;;;;;431.23;412.57;;;1.50;99.90;;;;;;5009374;28;20480;-66
2024/02/29 01:45:02;;;;;;;454.73;434.53;;;1.40;99.90;;;;;;5013072;28;20452;-67
2024/02/29 01:47:29;;;;;;;474.20;452.30;;;1.30;99.90;;;;;;5013013;28;20863;-66
2024/02/29 01:49:59;;;;;;;472.17;449.07;;;1.30;99.90;;;;;;5012864;28;20538;-66
2024/02/29 01:52:29;;;;;;;496.60;470.23;;;1.20;99.90;;;;;;5010539;28;20469;-66
2024/02/29 01:54:56;;;;;;;492.63;465.13;;;1.30;99.90;;;;;;5012236;28;20490;-65
2024/02/29 01:57:24;;;;;;;500.13;472.20;;;1.30;99.90;;;;;;5011389;28;20837;-67
2024/02/29 01:59:51;;;;;;;500.33;471.03;;;1.40;99.90;;;;;;5007494;28;20464;-66
2024/02/29 02:02:18;;;;;;;496.47;468.10;;;1.50;99.90;;;;;;5012622;28;20463;-66
2024/02/29 02:04:45;;;;;;;480.50;453.70;;;1.60;99.90;;;;;;5012069;28;20456;-66
2024/02/29 02:07:13;;;;;;;451.73;428.33;;;1.60;99.90;;;;;;4996446;28;20467;-66
2024/02/29 02:09:41;;;;;;;419.97;400.03;;;1.70;99.90;;;;;;4996575;28;20456;-66
2024/02/29 02:12:10;;;;;;;406.27;387.87;;;1.70;99.90;;;;;;5012374;28;20446;-66
2024/02/29 02:14:38;;;;;;;374.73;358.53;;;1.60;99.90;;;;;;5011877;28;20538;-66
2024/02/29 02:17:05;;;;;;;365.20;349.57;;;1.60;99.90;;;;;;5012468;28;20451;-65
2024/02/29 02:19:32;;;;;;;366.83;351.30;;;1.60;99.90;;;;;;5012230;28;20444;-66
2024/02/29 02:22:03;;;;;;;354.73;339.53;;;1.60;99.90;;;;;;5012126;28;20896;-66
2024/02/29 02:24:31;;;;;;;353.90;339.00;;;1.60;99.90;;;;;;5009752;28;20486;-66
2024/02/29 02:26:57;;;;;;;330.03;316.83;;;1.70;99.90;;;;;;4998428;28;20460;-66
2024/02/29 02:29:24;;;;;;;290.93;279.43;;;1.80;99.90;;;;;;5012173;28;20462;-66
2024/02/29 02:31:51;;;;;;;249.20;239.80;;;1.90;99.90;;;;;;5012292;28;20456;-66
2024/02/29 02:34:18;;;;;;;187.67;180.23;;;2.10;99.90;;;;;;4994608;28;20484;-66
2024/02/29 02:36:44;;;;;;;140.37;134.63;;;2.30;99.90;;;;;;4992000;28;20460;-66
2024/02/29 02:39:12;;;;;;;104.93;100.43;;;2.50;99.90;;;;;;5008724;28;20455;-66
2024/02/29 02:41:40;;;;;;;77.10;72.83;;;2.60;99.90;;;;;;5004148;28;20463;-67
2024/02/29 02:44:07;;;;;;;63.30;59.97;;;2.60;99.90;;;;;;5011683;28;20839;-66
2024/02/29 02:46:34;;;;;;;55.13;51.60;;;2.50;99.90;;;;;;5011539;28;20467;-66
2024/02/29 02:49:00;;;;;;;58.13;54.63;;;2.40;99.90;;;;;;5010175;28;20441;-66
2024/02/29 02:51:27;;;;;;;73.80;69.93;;;2.40;99.90;;;;;;5004012;28;20454;-66
2024/02/29 02:53:54;;;;;;;84.27;79.87;;;2.30;99.90;;;;;;5005056;28;20460;-66
2024/02/29 02:56:22;;;;;;;108.77;103.47;;;2.30;99.90;;;;;;5003372;28;20569;-67
2024/02/29 02:58:49;;;;;;;134.73;128.57;;;2.30;99.90;;;;;;5004972;28;20960;-67
2024/02/29 03:01:16;;;;;;;147.67;141.37;;;2.30;99.90;;;;;;5003798;28;20953;-66
2024/02/29 03:03:42;;;;;;;163.07;156.57;;;2.30;99.90;;;;;;5011431;28;20522;-67
2024/02/29 03:06:11;;;;;;;174.93;167.33;;;2.30;99.90;;;;;;5012298;28;20455;-67
2024/02/29 03:08:38;;;;;;;182.00;174.60;;;2.30;99.90;;;;;;5004664;28;20462;-66
2024/02/29 03:11:04;;;;;;;178.33;170.03;;;2.30;99.90;;;;;;5012310;28;20460;-66
2024/02/29 03:13:34;;;;;;;166.03;159.20;;;2.30;99.90;;;;;;5011385;28;20936;-66
2024/02/29 03:16:00;;;;;;;175.23;167.97;;;2.40;99.90;;;;;;5005155;28;20489;-66
2024/02/29 03:18:27;;;;;;;183.47;175.77;;;2.50;99.90;;;;;;5005598;28;20464;-66
2024/02/29 03:20:54;;;;;;;191.33;183.47;;;2.40;99.90;;;;;;5010287;28;20836;-67
2024/02/29 03:23:21;;;;;;;210.53;202.10;;;2.50;99.90;;;;;;5005337;28;20503;-66
2024/02/29 03:25:48;;;;;;;223.87;214.97;;;2.50;99.90;;;;;;5015518;28;20463;-66
2024/02/29 03:28:14;;;;;;;223.60;214.33;;;2.60;99.90;;;;;;5010225;28;20456;-67
2024/02/29 03:30:43;;;;;;;223.77;214.47;;;2.60;99.90;;;;;;5015447;28;20546;-66
2024/02/29 03:33:10;;;;;;;236.83;226.77;;;2.60;99.90;;;;;;5015669;28;20480;-66
2024/02/29 03:35:36;;;;;;;244.70;234.83;;;2.60;99.90;;;;;;5015079;28;20843;-66
2024/02/29 03:38:03;;;;;;;233.40;224.07;;;2.60;99.90;;;;;;5009524;28;20463;-66
2024/02/29 03:40:30;;;;;;;242.23;232.80;;;2.60;99.90;;;;;;5007023;28;20465;-66
2024/02/29 03:42:57;;;;;;;241.27;231.37;;;2.60;99.90;;;;;;5015251;28;20469;-66
2024/02/29 03:45:24;;;;;;;264.40;253.90;;;2.60;99.90;;;;;;5014912;28;20480;-67
2024/02/29 03:47:52;;;;;;;263.40;252.40;;;2.60;99.90;;;;;;5011143;28;20460;-66
2024/02/29 03:50:19;;;;;;;284.07;272.73;;;2.60;99.90;;;;;;5015442;28;20453;-66
2024/02/29 03:52:45;;;;;;;273.47;261.77;;;2.60;99.90;;;;;;5014827;28;20983;-66
2024/02/29 03:55:12;;;;;;;270.40;258.60;;;2.70;99.90;;;;;;5013097;28;20487;-66
2024/02/29 03:57:39;;;;;;;270.33;259.33;;;2.70;99.90;;;;;;5007423;28;20463;-67
2024/02/29 04:00:10;;;;;;;254.40;243.73;;;2.70;99.90;;;;;;5015184;28;20468;-66
2024/02/29 04:02:38;;;;;;;260.30;249.70;;;2.70;99.90;;;;;;4996516;28;20568;-66
2024/02/29 04:05:08;;;;;;;271.73;260.60;;;2.70;99.90;;;;;;5010605;28;20552;-66
2024/02/29 04:07:36;;;;;;;270.83;259.67;;;2.70;99.90;;;;;;5011873;28;20532;-66
2024/02/29 04:10:04;;;;;;;266.50;254.90;;;2.70;99.90;;;;;;4995425;28;20462;-66
2024/02/29 04:12:30;;;;;;;257.77;246.67;;;2.70;99.90;;;;;;5013037;28;20476;-66
2024/02/29 04:14:57;;;;;;;250.63;239.97;;;2.70;99.90;;;;;;5011604;28;20457;-66
2024/02/29 04:17:25;;;;;;;247.23;236.30;;;2.70;99.90;;;;;;5014723;28;20453;-66
2024/02/29 04:19:51;;;;;;;244.47;234.27;;;2.60;99.90;;;;;;5009593;28;20487;-66
2024/02/29 04:22:20;;;;;;;256.33;245.77;;;2.60;99.90;;;;;;5012226;28;20461;-66
2024/02/29 04:24:46;;;;;;;284.27;272.00;;;2.50;99.90;;;;;;5009689;28;20456;-66
2024/02/29 04:27:13;;;;;;;304.10;291.50;;;2.60;99.90;;;;;;5008177;28;20457;-66
2024/02/29 04:29:40;;;;;;;283.13;270.87;;;2.60;99.90;;;;;;5013464;28;20948;-66
2024/02/29 04:32:08;;;;;;;276.40;264.80;;;2.60;99.90;;;;;;5007056;28;20457;-66
2024/02/29 04:34:34;;;;;;;284.47;271.80;;;2.50;99.90;;;;;;5009409;28;20449;-66
2024/02/29 04:37:02;;;;;;;305.93;293.13;;;2.50;99.90;;;;;;5007779;28;20490;-66
2024/02/29 04:39:31;;;;;;;332.50;317.50;;;2.50;99.90;;;;;;5004934;28;20457;-66
2024/02/29 04:41:57;;;;;;;333.57;319.03;;;2.50;99.90;;;;;;5008402;28;20828;-66
2024/02/29 04:44:24;;;;;;;338.90;324.23;;;2.50;99.90;;;;;;4995562;28;20495;-66
2024/02/29 04:46:51;;;;;;;353.30;337.53;;;2.40;99.90;;;;;;5000872;28;20460;-66
2024/02/29 04:49:18;;;;;;;360.73;343.93;;;2.50;99.90;;;;;;5011665;28;21019;-66
2024/02/29 04:51:45;;;;;;;376.80;359.77;;;2.40;99.90;;;;;;5014163;28;20464;-66
2024/02/29 04:54:12;;;;;;;376.23;358.77;;;2.40;99.90;;;;;;5011893;28;20484;-66
2024/02/29 04:56:40;;;;;;;376.97;360.07;;;2.40;99.90;;;;;;5005777;28;20499;-67
2024/02/29 04:59:07;;;;;;;374.90;356.83;;;2.50;99.90;;;;;;5013268;28;20965;-67
2024/02/29 05:01:34;;;;;;;371.13;354.50;;;2.40;99.90;;;;;;5002903;28;20460;-67
2024/02/29 05:04:00;;;;;;;356.17;340.37;;;2.50;99.90;;;;;;4993958;28;20477;-67
2024/02/29 05:06:27;;;;;;;358.63;341.83;;;2.50;99.90;;;;;;5012232;28;20456;-66
2024/02/29 05:08:54;;;;;;;361.87;345.27;;;2.50;99.90;;;;;;5008831;28;20805;-67
2024/02/29 05:11:21;;;;;;;360.93;344.27;;;2.50;99.90;;;;;;5013759;28;20449;-66
2024/02/29 05:13:49;;;;;;;353.03;336.93;;;2.50;99.90;;;;;;5005159;28;20480;-67
2024/02/29 05:16:18;;;;;;;344.83;329.10;;;2.60;99.90;;;;;;5013414;28;20493;-67
2024/02/29 05:18:45;;;;;;;320.47;305.27;;;2.60;99.90;;;;;;5009563;28;20489;-69
2024/02/29 05:21:12;;;;;;;313.83;299.43;;;2.60;99.90;;;;;;5014904;28;20551;-69
2024/02/29 05:23:38;;;;;;;302.70;289.00;;;2.60;99.90;;;;;;5000000;28;20484;-67
2024/02/29 05:26:07;;;;;;;293.00;280.20;;;2.70;99.90;;;;;;5005852;28;20825;-67
2024/02/29 05:28:35;;;;;;;306.27;291.40;;;2.60;99.90;;;;;;5013126;28;20455;-68
2024/02/29 05:31:03;;;;;;;287.17;274.70;;;2.60;99.90;;;;;;5000029;28;20833;-68
2024/02/29 05:33:30;;;;;;;298.20;283.80;;;2.70;99.90;;;;;;5010322;28;20543;-67
2024/02/29 05:35:57;;;;;;;294.00;281.50;;;2.60;99.90;;;;;;5008778;28;20476;-66
2024/02/29 05:38:24;;;;;;;279.03;267.10;;;2.60;99.90;;;;;;5008605;28;21450;-67
2024/02/29 05:40:50;;;;;;;282.43;270.20;;;2.60;99.90;;;;;;5009311;28;20914;-67
2024/02/29 05:43:17;;;;;;;284.43;271.60;;;2.60;99.90;;;;;;5012950;28;21017;-70
2024/02/29 05:45:44;;;;;;;281.90;269.80;;;2.70;99.90;;;;;;4996519;28;20460;-66
2024/02/29 05:48:12;;;;;;;275.50;263.27;;;2.70;99.90;;;;;;5012844;28;20460;-66
2024/02/29 05:50:39;;;;;;;266.23;254.70;;;2.70;99.90;;;;;;5012143;28;20816;-67
2024/02/29 05:53:06;;;;;;;272.00;260.00;;;2.70;99.90;;;;;;5012049;28;20464;-67
2024/02/29 05:55:33;;;;;;;260.83;249.03;;;2.70;99.90;;;;;;5010388;28;20491;-67
2024/02/29 05:58:00;;;;;;;254.83;244.00;;;2.70;99.90;;;;;;5011421;28;20546;-66
2024/02/29 06:00:27;;;;;;;243.27;232.57;;;2.70;99.90;;;;;;5012236;28;20484;-66
2024/02/29 06:02:54;;;;;;;246.67;235.47;;;2.70;99.90;;;;;;5003711;28;20484;-67
2024/02/29 06:05:23;;;;;;;245.83;234.53;;;2.70;99.90;;;;;;5007685;28;20453;-66
2024/02/29 06:07:50;;;;;;;245.40;234.97;;;2.70;99.90;;;;;;5011871;28;20452;-67
2024/02/29 06:10:19;;;;;;;241.57;230.77;;;2.70;99.90;;;;;;5007964;28;20452;-67
2024/02/29 06:12:46;;;;;;;246.97;235.30;;;2.70;99.90;;;;;;5012309;28;20476;-66
2024/02/29 06:15:13;;;;;;;240.10;229.60;;;2.70;99.90;;;;;;5005000;28;20460;-65
2024/02/29 06:17:40;;;;;;;249.50;238.50;;;2.70;99.90;;;;;;5007297;28;20997;-66
2024/02/29 06:20:10;;;;;;;253.67;242.37;;;2.70;99.90;;;;;;5012531;28;20451;-67
2024/02/29 06:22:40;;;;;;;278.87;267.17;;;2.70;99.90;;;;;;5005323;28;20477;-67
2024/02/29 06:25:08;;;;;;;269.93;257.93;;;2.60;99.90;;;;;;5010054;28;20474;-66
2024/02/29 06:27:36;;;;;;;280.40;267.87;;;2.70;99.90;;;;;;5003410;28;20866;-66
2024/02/29 06:30:04;;;;;;;290.23;276.80;;;2.70;99.90;;;;;;5011852;28;20460;-66
2024/02/29 06:32:31;;;;;;;286.87;274.03;;;2.70;99.90;;;;;;5009290;28;20476;-67
2024/02/29 06:34:57;;;;;;;277.77;265.67;;;2.70;99.90;;;;;;5010667;28;20456;-66
2024/02/29 06:37:24;;;;;;;293.33;280.53;;;2.70;99.90;;;;;;5004874;28;20481;-67
2024/02/29 06:39:54;;;;;;;287.53;274.93;;;2.80;99.90;;;;;;5012786;28;20453;-67
2024/02/29 06:42:20;;;;;;;287.17;274.47;;;2.80;99.90;;;;;;5011718;28;20838;-65
2024/02/29 06:44:47;;;;;;;278.03;265.33;;;2.90;99.90;;;;;;5000098;28;20463;-67
2024/02/29 06:47:14;;;;;;;271.20;259.40;;;3.00;99.90;;;;;;5008413;28;20459;-66
2024/02/29 06:49:41;;;;;;;252.87;241.73;;;3.00;99.90;;;;;;5009361;28;20453;-67
2024/02/29 06:52:09;;;;;;;235.30;225.07;;;3.10;99.90;;;;;;5013443;28;20453;-67
2024/02/29 06:54:36;;;;;;;211.50;201.50;;;3.20;99.90;;;;;;5015726;28;20457;-67
2024/02/29 06:57:04;;;;;;;195.30;186.57;;;3.30;99.90;;;;;;5016089;28;20477;-66
2024/02/29 06:59:31;;;;;;;176.83;169.13;;;3.50;99.90;;;;;;5007558;28;20532;-67
2024/02/29 07:01:58;;;;;;;158.50;150.90;;;3.60;99.90;;;;;;5016142;28;20456;-67
2024/02/29 07:04:25;;;;;;;140.43;132.63;;;3.70;99.90;;;;;;5015087;28;20481;-67
2024/02/29 07:06:52;;;;;;;118.40;112.13;;;3.80;99.90;;;;;;5014787;28;20900;-66
2024/02/29 07:09:18;;;;;;;98.87;93.17;;;4.00;99.90;;;;;;5012984;28;20456;-67
2024/02/29 07:11:45;;;;;;;86.13;81.07;;;4.10;99.90;;;;;;5002997;28;20957;-66
2024/02/29 07:14:14;;;;;;;78.23;73.53;;;4.30;99.90;;;;;;5011978;28;20559;-67
2024/02/29 07:16:41;;;;;;;69.40;64.60;;;4.40;99.90;;;;;;5007748;28;20495;-67
2024/02/29 07:19:08;;;;;;;57.70;54.03;;;4.60;99.90;;;;;;5015503;28;20547;-67
2024/02/29 07:21:35;;;;;;;52.57;48.30;;;4.70;99.90;;;;;;5007834;28;20476;-67
2024/02/29 07:24:02;;;;;;;47.23;43.17;;;4.90;99.90;;;;;;5006981;28;20482;-67
2024/02/29 07:26:30;;;;;;;41.53;37.93;;;5.00;99.90;;;;;;5005312;28;20834;-67
2024/02/29 07:28:57;;;;;;;39.57;36.33;;;5.20;99.90;;;;;;4995967;28;20505;-67
2024/02/29 07:31:26;;;;;;;32.70;29.73;;;5.40;99.90;;;;;;5005263;28;21040;-67
2024/02/29 07:33:54;;;;;;;31.10;27.70;;;5.50;99.90;;;;;;5014935;28;20550;-67
2024/02/29 07:36:21;;;;;;;34.90;23.90;;;5.60;99.90;;;;;;5005917;28;20478;-67
2024/02/29 07:38:47;;;;;;;27.50;22.00;;;5.80;99.90;;;;;;5008315;28;20456;-66
2024/02/29 07:41:14;;;;;;;25.87;22.87;;;5.90;99.90;;;;;;5015327;28;20457;-67
2024/02/29 07:43:41;;;;;;;29.57;18.03;;;6.00;99.90;;;;;;5014828;28;20487;-67
2024/02/29 07:46:08;;;;;;;23.17;18.93;;;6.10;99.90;;;;;;5015265;28;20453;-67
2024/02/29 07:48:37;;;;;;;24.50;18.50;;;6.10;99.90;;;;;;5003760;28;21004;-67
2024/02/29 07:51:04;;;;;;;21.23;17.03;;;6.20;99.90;;;;;;5010397;28;20567;-67
2024/02/29 07:53:30;;;;;;;21.77;15.73;;;6.20;99.90;;;;;;5014723;28;20535;-67
2024/02/29 07:55:57;;;;;;;20.27;15.23;;;6.30;99.90;;;;;;5015099;28;20453;-65
2024/02/29 07:58:24;;;;;;;26.90;14.50;;;6.40;99.90;;;;;;5014926;28;20464;-67
2024/02/29 08:00:51;;;;;;;27.60;17.93;;;6.40;99.90;;;;;;5007692;28;20449;-66
2024/02/29 08:03:18;;;;;;;18.77;14.13;;;6.50;99.90;;;;;;5005086;28;20498;-67
2024/02/29 08:05:47;;;;;;;26.33;16.57;;;6.50;99.90;;;;;;4994001;28;20469;-66
2024/02/29 08:08:13;;;;;;;26.47;15.67;;;6.50;99.90;;;;;;4994716;28;20457;-67
2024/02/29 08:10:40;;;;;;;19.70;13.20;;;6.60;99.90;;;;;;4994803;28;20577;-67
2024/02/29 08:13:07;;;;;;;20.00;13.97;;;6.70;99.90;;;;;;4994462;28;21001;-67
2024/02/29 08:15:34;;;;;;;22.00;13.40;;;6.70;99.90;;;;;;4994252;28;20465;-66
2024/02/29 08:18:01;;;;;;;21.37;12.60;;;6.70;99.90;;;;;;4993852;28;20489;-67
2024/02/29 08:20:28;;;;;;;19.93;12.40;;;6.80;99.90;;;;;;4996367;28;20464;-67
2024/02/29 08:22:57;;;;;;;20.73;12.82;;;6.90;99.90;;;;;;5014133;28;20451;-67
2024/02/29 08:25:25;;;;;;;25.85;16.45;;;7.00;99.90;;;;;;5013062;28;20894;-67
2024/02/29 08:27:53;;;;;;;24.37;14.67;;;7.10;99.90;;;;;;5013868;28;20221;-66
2024/02/29 08:30:19;;;;;;;24.20;13.60;;;7.20;98.80;;;;;;5013976;28;20456;-67
2024/02/29 08:32:48;;;;;;;24.60;11.27;;;7.30;97.10;;;;;;5014027;28;20484;-66
2024/02/29 08:35:15;;;;;;;23.70;14.70;;;7.30;97.00;;;;;;5013863;28;20456;-67
2024/02/29 08:37:43;;;;;;;19.90;11.97;;;7.40;97.10;;;;;;5010342;28;20485;-67
2024/02/29 08:40:12;;;;;;;16.27;10.40;;;7.40;97.10;;;;;;4994706;28;20461;-67
2024/02/29 08:42:39;;;;;;;20.67;11.43;;;7.40;97.10;;;;;;5005992;28;20476;-67
2024/02/29 08:45:08;;;;;;;22.27;12.70;;;7.50;97.10;;;;;;4998458;28;20845;-67
2024/02/29 08:47:35;;;;;;;18.33;10.83;;;7.60;97.10;;;;;;4997130;28;20448;-67
2024/02/29 08:50:03;;;;;;;18.93;12.10;;;7.80;97.20;;;;;;5013868;28;20456;-66
2024/02/29 08:52:31;;;;;;;18.93;11.20;;;7.90;97.60;;;;;;5013815;28;20473;-67
2024/02/29 08:54:58;;;;;;;21.67;10.97;;;8.00;97.30;;;;;;5013754;28;20441;-66
2024/02/29 08:57:26;;;;;;;19.37;11.23;;;8.10;97.30;;;;;;5004184;28;20481;-67
2024/02/29 08:59:53;;;;;;;21.80;10.73;;;8.20;97.30;;;;;;4993968;28;20462;-66
2024/02/29 09:02:20;;;;;;;19.73;10.83;;;8.30;94.50;;;;;;4994133;28;20458;-67
2024/02/29 09:04:46;;;;;;;21.50;10.87;;;8.50;95.10;;;;;;5006530;28;20830;-67
2024/02/29 09:07:13;;;;;;;17.60;10.80;;;8.50;94.20;;;;;;4997505;28;20533;-66
2024/02/29 09:09:41;;;;;;;16.00;9.63;;;8.70;94.30;;;;;;5013647;28;20851;-67
2024/02/29 09:12:09;;;;;;;17.73;10.23;;;8.60;94.20;;;;;;5013365;28;20463;-67
2024/02/29 09:14:37;;;;;;;14.90;9.30;;;8.70;92.60;;;;;;5012038;28;21027;-67
2024/02/29 09:17:06;;;;;;;19.00;10.03;;;8.60;90.90;;;;;;5006578;28;20492;-67
2024/02/29 09:19:32;;;;;;;18.77;11.07;;;8.70;91.00;;;;;;5012567;28;20541;-68
2024/02/29 09:21:59;;;;;;;16.17;10.00;;;8.60;90.90;;;;;;5013471;28;20463;-67
2024/02/29 09:24:26;;;;;;;17.13;9.60;;;8.50;90.80;;;;;;5004720;28;20470;-67
2024/02/29 09:26:53;;;;;;;17.40;9.77;;;8.50;90.80;;;;;;5013046;28;20459;-67
2024/02/29 09:29:20;;;;;;;18.33;9.60;;;8.40;90.80;;;;;;5012179;28;20967;-67
2024/02/29 09:31:48;;;;;;;18.80;10.07;;;8.40;90.80;;;;;;4993585;28;20466;-67
2024/02/29 09:34:16;;;;;;;21.43;10.60;;;8.50;90.80;;;;;;4993403;28;20520;-67
2024/02/29 09:36:45;;;;;;;19.10;10.40;;;8.40;90.80;;;;;;5013176;28;20837;-67
2024/02/29 09:39:12;;;;;;;17.80;10.77;;;8.50;90.80;;;;;;5012920;28;20464;-67
2024/02/29 09:41:38;;;;;;;16.53;10.60;;;8.60;90.90;;;;;;5012792;28;20467;-67
2024/02/29 09:44:06;;;;;;;16.13;9.50;;;8.60;90.90;;;;;;5012990;28;20930;-67
2024/02/29 09:46:33;;;;;;;17.47;9.60;;;8.70;90.90;;;;;;5012676;28;20472;-67
2024/02/29 09:49:04;;;;;;;14.87;8.03;;;8.80;90.90;;;;;;5012903;28;20459;-67
2024/02/29 09:51:32;;;;;;;17.27;10.03;;;8.80;90.90;;;;;;5010393;28;20507;-67
2024/02/29 09:54:01;;;;;;;16.00;9.43;;;8.90;91.00;;;;;;5006937;28;20557;-67
2024/02/29 09:56:29;;;;;;;14.20;8.90;;;9.10;91.10;;;;;;5012670;28;20457;-67
2024/02/29 09:58:59;;;;;;;14.13;8.50;;;9.20;91.10;;;;;;5012516;28;21027;-66
2024/02/29 10:01:29;;;;;;;16.83;8.37;;;9.30;91.10;;;;;;5012753;28;20458;-67
2024/02/29 10:03:58;;;;;;;13.73;7.63;;;9.30;91.00;;;;;;5012143;28;20992;-67
2024/02/29 10:06:26;;;;;;;16.60;9.33;;;9.40;91.10;;;;;;4996583;28;20505;-67
2024/02/29 10:08:53;;;;;;;14.60;7.93;;;9.50;91.20;;;;;;5012833;28;20453;-67
2024/02/29 10:11:20;;;;;;;18.07;7.87;;;9.70;91.20;;;;;;5013268;28;20460;-67
2024/02/29 10:13:47;;;;;;;13.53;7.90;;;9.80;91.30;;;;;;5007718;28;20489;-67
2024/02/29 10:16:14;;;;;;;11.70;6.60;;;9.90;91.30;;;;;;5001197;28;20818;-66
2024/02/29 10:18:41;;;;;;;11.97;6.37;;;10.10;90.30;;;;;;5012462;28;20507;-67
2024/02/29 10:21:11;;;;;;;13.93;7.00;;;10.30;90.70;;;;;;5004815;28;20464;-67
2024/02/29 10:23:40;;;;;;;13.20;7.43;;;10.50;89.30;;;;;;4992379;28;20481;-67
2024/02/29 10:26:06;;;;;;;10.83;6.27;;;10.60;85.20;;;;;;4992769;28;20465;-67
2024/02/29 10:28:33;;;;;;;11.80;5.47;;;10.80;82.70;;;;;;5003471;28;20469;-67
2024/02/29 10:31:01;;;;;;;11.67;6.77;;;10.80;84.70;;;;;;5012317;28;20449;-67
2024/02/29 10:33:28;;;;;;;10.07;5.50;;;10.90;79.80;;;;;;5011848;28;20481;-67
2024/02/29 10:35:56;;;;;;;10.17;5.03;;;11.00;77.90;;;;;;5011941;28;20453;-68
2024/02/29 10:38:23;;;;;;;10.57;5.30;;;11.10;77.90;;;;;;5012254;28;20489;-67
2024/02/29 10:40:53;;;;;;;10.97;4.30;;;11.10;78.00;;;;;;5011899;28;20453;-67
2024/02/29 10:43:21;;;;;;;11.10;5.40;;;11.20;78.10;;;;;;5011895;28;20473;-67
2024/02/29 10:45:50;;;;;;;11.80;4.93;;;11.40;78.20;;;;;;5011698;28;20457;-67
2024/02/29 10:48:23;;;;;;;8.77;4.97;;;11.60;78.40;;;;;;5011874;28;20460;-67
2024/02/29 10:51:10;;;;;;;8.70;4.50;;;11.70;78.50;;;;;;4998919;28;20554;-67
2024/02/29 10:53:44;;;;;;;9.90;4.80;;;11.80;78.50;;;;;;5011178;28;21059;-68
2024/02/29 10:56:23;;;;;;;7.90;3.93;;;11.60;78.40;;;;;;5004236;28;20457;-67
2024/02/29 10:58:58;;;;;;;12.03;4.97;;;11.60;78.40;;;;;;5005343;28;20588;-67
2024/02/29 11:01:26;;;;;;;9.30;4.90;;;11.80;78.60;;;;;;5011997;28;20463;-67
2024/02/29 11:03:53;;;;;;;11.17;4.33;;;11.90;78.60;;;;;;5011593;28;20477;-67
2024/02/29 11:06:21;;;;;;;9.00;4.00;;;11.80;78.60;;;;;;4994975;28;20458;-68
2024/02/29 11:08:50;;;;;;;7.03;3.33;;;11.80;78.60;;;;;;4992381;28;20457;-68
2024/02/29 11:11:21;;;;;;;11.30;4.40;;;11.80;74.30;;;;;;5000669;28;20453;-68
2024/02/29 11:13:48;;;;;;;7.50;3.60;;;11.90;78.60;;;;;;4998777;28;20500;-68
2024/02/29 11:16:16;;;;;;;13.03;4.47;;;12.00;78.70;;;;;;4992415;28;20461;-67
2024/02/29 11:18:43;;;;;;;8.13;4.10;;;12.00;71.40;;;;;;5011693;28;20489;-67
2024/02/29 11:21:10;;;;;;;7.90;3.93;;;11.80;78.40;;;;;;5011825;28;20459;-67
2024/02/29 11:23:40;;;;;;;9.07;4.10;;;11.60;70.50;;;;;;4991387;28;21020;-67
2024/02/29 11:26:10;;;;;;;9.70;4.90;;;11.70;73.90;;;;;;4992399;28;20461;-67
2024/02/29 11:28:40;;;;;;;9.50;4.50;;;11.80;74.40;;;;;;5011410;28;20449;-67
2024/02/29 11:31:17;;;;;;;8.07;3.90;;;11.80;70.70;;;;;;5011698;28;20463;-67
2024/02/29 11:33:46;;;;;;;7.40;3.73;;;11.80;78.50;;;;;;5004352;28;20477;-68
2024/02/29 11:36:13;;;;;;;10.07;4.87;;;11.90;70.80;;;;;;5011478;28;20487;-68
2024/02/29 11:38:40;;;;;;;8.20;3.90;;;11.70;70.80;;;;;;5005750;28;20481;-67
2024/02/29 11:41:17;;;;;;;9.47;4.10;;;11.60;66.60;;;;;;5015458;28;20453;-67
2024/02/29 11:43:46;;;;;;;8.70;3.93;;;11.50;70.40;;;;;;5007371;28;20519;-66
2024/02/29 11:46:15;;;;;;;7.73;4.23;;;11.30;70.20;;;;;;5007080;28;20887;-68
2024/02/29 11:48:42;;;;;;;8.65;4.47;;;11.40;78.20;;;;;;5006807;28;20446;-68
2024/02/29 11:51:09;;;;;;;8.17;3.70;;;11.30;78.10;;;;;;5015320;28;20208;-68
2024/02/29 11:53:38;;;;;;;8.23;4.10;;;11.30;78.00;;;;;;5014507;28;20472;-68
2024/02/29 11:56:06;;;;;;;7.00;3.70;;;11.50;78.30;;;;;;4999979;28;20454;-68
2024/02/29 11:58:33;;;;;;;7.60;3.33;;;11.30;78.10;;;;;;4995198;28;20959;-68
2024/02/29 12:01:02;;;;;;;9.83;3.80;;;11.30;78.00;;;;;;5009857;28;20460;-69
2024/02/29 12:03:31;;;;;;;8.17;4.03;;;11.40;78.10;;;;;;5012291;28;20489;-69
2024/02/29 12:05:58;;;;;;;8.23;3.70;;;11.40;76.70;;;;;;5001543;28;20844;-69
2024/02/29 12:08:27;;;;;;;6.77;3.50;;;11.50;78.30;;;;;;5014976;28;20832;-68
2024/02/29 12:10:57;;;;;;;7.17;3.73;;;11.50;70.50;;;;;;5014765;28;20475;-69
2024/02/29 12:13:24;;;;;;;8.13;4.30;;;11.60;70.50;;;;;;5014530;28;20920;-68
2024/02/29 12:15:52;;;;;;;7.00;3.73;;;11.80;70.70;;;;;;5006235;28;20457;-69
2024/02/29 12:18:21;;;;;;;8.83;3.73;;;11.80;70.70;;;;;;5005443;28;20569;-68
2024/02/29 12:20:48;;;;;;;7.50;3.77;;;11.70;70.60;;;;;;4995117;28;20545;-69
2024/02/29 12:23:15;;;;;;;7.70;3.83;;;11.80;70.70;;;;;;5011455;28;20473;-68
2024/02/29 12:25:42;;;;;;;8.27;4.07;;;11.90;70.80;;;;;;5014106;28;20838;-68
2024/02/29 12:28:10;;;;;;;7.63;3.83;;;11.90;64.60;;;;;;5006711;28;20450;-67
2024/02/29 12:30:37;;;;;;;6.57;3.23;;;11.90;65.40;;;;;;4997825;28;20457;-68